createdAt,value
2023-01-23T00:01:20.847Z,9.65
2023-01-23T00:03:48.273Z,9.59
2023-01-23T00:06:16.893Z,9.57
2023-01-23T00:08:47.421Z,9.51
2023-01-23T00:11:19.916Z,9.50
2023-01-23T00:13:47.141Z,9.32
2023-01-23T00:16:17.090Z,9.39
2023-01-23T00:18:44.397Z,9.51
2023-01-23T00:21:13.948Z,9.56
2023-01-23T00:23:49.611Z,9.59
2023-01-23T00:26:19.619Z,9.52
2023-01-23T00:28:47.515Z,9.58
2023-01-23T00:31:24.950Z,9.49
2023-01-23T00:34:00.861Z,9.56
2023-01-23T00:36:33.419Z,9.58
2023-01-23T00:39:00.677Z,9.61
2023-01-23T00:41:27.946Z,9.46
2023-01-23T00:43:55.303Z,9.55
2023-01-23T00:46:23.467Z,9.59
2023-01-23T00:48:51.213Z,9.51
2023-01-23T00:51:19.257Z,9.49
2023-01-23T00:53:47.448Z,9.53
2023-01-23T00:56:14.480Z,9.37
2023-01-23T00:58:44.125Z,9.58
2023-01-23T01:01:14.009Z,9.59
2023-01-23T01:03:41.730Z,9.54
2023-01-23T01:06:09.899Z,9.51
2023-01-23T01:08:36.950Z,9.39
2023-01-23T01:11:04.632Z,9.51
2023-01-23T01:13:31.739Z,9.53
2023-01-23T01:16:01.999Z,9.48
2023-01-23T01:18:29.874Z,9.38
2023-01-23T01:20:57.837Z,9.46
2023-01-23T01:23:25.237Z,9.55
2023-01-23T01:25:52.396Z,9.41
2023-01-23T01:28:21.207Z,9.53
2023-01-23T01:30:48.265Z,9.52
2023-01-23T01:33:15.328Z,9.29
2023-01-23T01:35:42.454Z,9.45
2023-01-23T01:38:09.573Z,9.52
2023-01-23T01:40:37.359Z,9.54
2023-01-23T01:43:08.871Z,9.51
2023-01-23T01:46:01.447Z,9.58
2023-01-23T01:48:52.169Z,9.42
2023-01-23T01:51:52.170Z,9.57
2023-01-23T01:54:31.432Z,9.59
2023-01-23T01:57:21.199Z,9.54
2023-01-23T02:00:03.986Z,9.28
2023-01-23T02:02:45.755Z,9.57
2023-01-23T02:05:17.050Z,9.15
2023-01-23T02:07:54.523Z,9.44
2023-01-23T02:10:22.858Z,9.61
2023-01-23T02:12:52.225Z,9.66
2023-01-23T02:15:22.386Z,9.61
2023-01-23T02:17:53.121Z,9.62
2023-01-23T02:20:40.097Z,9.52
2023-01-23T02:23:38.991Z,9.67
2023-01-23T02:26:12.672Z,9.66
2023-01-23T02:28:48.667Z,9.64
2023-01-23T02:31:20.338Z,9.61
2023-01-23T02:33:55.987Z,9.59
2023-01-23T02:36:26.892Z,9.48
2023-01-23T02:39:03.505Z,9.48
2023-01-23T02:41:41.625Z,9.50
2023-01-23T02:44:17.522Z,9.48
2023-01-23T02:46:50.001Z,9.40
2023-01-23T02:49:17.400Z,9.37
2023-01-23T02:51:44.461Z,9.21
2023-01-23T02:54:11.531Z,9.25
2023-01-23T02:56:38.871Z,9.19
2023-01-23T02:59:24.542Z,9.07
2023-01-23T03:01:51.581Z,9.24
2023-01-23T03:04:19.808Z,9.12
2023-01-23T03:06:46.738Z,9.16
2023-01-23T03:09:17.003Z,9.09
2023-01-23T03:11:46.642Z,9.06
2023-01-23T03:14:18.099Z,9.17
2023-01-23T03:16:50.313Z,9.20
2023-01-23T03:19:23.369Z,9.09
2023-01-23T03:21:51.299Z,9.17
2023-01-23T03:24:19.743Z,9.09
2023-01-23T03:26:48.290Z,9.15
2023-01-23T03:29:36.744Z,9.15
2023-01-23T03:32:05.171Z,9.15
2023-01-23T03:34:32.769Z,9.05
2023-01-23T03:37:01.355Z,8.87
2023-01-23T03:39:48.954Z,9.09
2023-01-23T03:42:20.596Z,8.96
2023-01-23T03:44:49.610Z,9.08
2023-01-23T03:47:18.614Z,9.10
2023-01-23T03:49:45.831Z,9.01
2023-01-23T03:52:13.057Z,9.10
2023-01-23T03:54:40.308Z,8.97
2023-01-23T03:57:09.804Z,9.09
2023-01-23T04:00:03.872Z,9.06
2023-01-23T04:02:41.462Z,8.97
2023-01-23T04:05:10.868Z,9.02
2023-01-23T04:07:38.532Z,8.93
2023-01-23T04:10:05.534Z,8.91
2023-01-23T04:12:32.811Z,8.91
2023-01-23T04:15:00.286Z,8.89
2023-01-23T04:17:30.062Z,8.93
2023-01-23T04:19:57.476Z,8.98
2023-01-23T04:22:24.431Z,8.94
2023-01-23T04:24:51.656Z,9.02
2023-01-23T04:27:19.452Z,8.91
2023-01-23T04:29:48.009Z,8.89
2023-01-23T04:32:15.016Z,9.02
2023-01-23T04:34:45.895Z,8.86
2023-01-23T04:37:13.137Z,8.99
2023-01-23T04:39:40.949Z,9.08
2023-01-23T04:42:08.470Z,8.72
2023-01-23T04:44:58.111Z,9.00
2023-01-23T04:47:45.100Z,9.02
2023-01-23T04:50:14.735Z,8.88
2023-01-23T04:52:45.395Z,8.99
2023-01-23T04:55:13.892Z,8.95
2023-01-23T04:57:41.438Z,8.84
2023-01-23T05:00:34.485Z,8.75
2023-01-23T05:03:03.646Z,8.87
2023-01-23T05:05:33.135Z,8.93
2023-01-23T05:08:01.475Z,8.92
2023-01-23T05:10:30.124Z,8.89
2023-01-23T05:13:02.839Z,8.84
2023-01-23T05:15:30.996Z,8.74
2023-01-23T05:17:58.163Z,8.84
2023-01-23T05:20:25.239Z,8.85
2023-01-23T05:22:54.013Z,8.82
2023-01-23T05:25:29.169Z,8.85
2023-01-23T05:27:58.303Z,8.87
2023-01-23T05:30:26.152Z,8.75
2023-01-23T05:33:01.812Z,8.87
2023-01-23T05:35:29.129Z,8.76
2023-01-23T05:37:56.395Z,8.86
2023-01-23T05:40:25.345Z,8.81
2023-01-23T05:43:16.670Z,8.86
2023-01-23T05:46:02.700Z,8.80
2023-01-23T05:48:52.034Z,8.92
2023-01-23T05:51:21.191Z,7.93
2023-01-23T05:53:48.914Z,8.84
2023-01-23T05:56:17.432Z,8.83
2023-01-23T05:59:09.645Z,8.88
2023-01-23T06:01:42.819Z,8.65
2023-01-23T06:04:30.242Z,8.91
2023-01-23T06:07:18.732Z,8.89
2023-01-23T06:09:47.723Z,8.95
2023-01-23T06:12:15.148Z,8.97
2023-01-23T06:14:42.217Z,8.93
2023-01-23T06:17:15.560Z,8.88
2023-01-23T06:19:43.213Z,8.94
2023-01-23T06:22:11.123Z,8.72
2023-01-23T06:24:56.498Z,8.98
2023-01-23T06:27:23.993Z,9.00
2023-01-23T06:29:52.505Z,9.00
2023-01-23T06:32:20.246Z,8.86
2023-01-23T06:34:48.173Z,9.01
2023-01-23T06:37:15.486Z,8.98
2023-01-23T06:39:44.588Z,8.96
2023-01-23T06:42:14.859Z,8.86
2023-01-23T06:44:45.935Z,8.91
2023-01-23T06:47:14.161Z,8.90
2023-01-23T06:49:43.775Z,8.72
2023-01-23T06:52:11.272Z,8.70
2023-01-23T06:54:38.232Z,8.52
2023-01-23T06:57:06.456Z,8.61
2023-01-23T06:59:34.469Z,8.72
2023-01-23T07:02:03.665Z,8.71
2023-01-23T07:04:53.760Z,8.54
2023-01-23T07:07:21.075Z,8.62
2023-01-23T07:09:49.832Z,8.49
2023-01-23T07:12:23.483Z,8.52
2023-01-23T07:14:50.667Z,8.54
2023-01-23T07:17:23.273Z,8.51
2023-01-23T07:19:51.618Z,8.24
2023-01-23T07:22:21.429Z,8.51
2023-01-23T07:24:48.672Z,8.52
2023-01-23T07:27:16.239Z,8.45
2023-01-23T07:29:43.400Z,8.40
2023-01-23T07:32:11.321Z,8.34
2023-01-23T07:34:38.724Z,8.42
2023-01-23T07:37:06.019Z,8.33
2023-01-23T07:39:32.958Z,8.42
2023-01-23T07:42:00.182Z,8.39
2023-01-23T07:44:28.792Z,8.24
2023-01-23T07:46:56.728Z,8.33
2023-01-23T07:49:23.635Z,8.29
2023-01-23T07:51:50.863Z,8.25
2023-01-23T07:54:17.793Z,8.33
2023-01-23T07:56:44.768Z,8.37
2023-01-23T07:59:13.130Z,8.38
2023-01-23T08:01:40.148Z,8.38
2023-01-23T08:04:07.360Z,8.24
2023-01-23T08:06:34.533Z,8.34
2023-01-23T08:09:01.676Z,8.37
2023-01-23T08:11:28.817Z,8.33
2023-01-23T08:13:55.639Z,8.42
2023-01-23T08:16:22.852Z,8.33
2023-01-23T08:18:50.046Z,8.19
2023-01-23T08:21:17.135Z,8.47
2023-01-23T08:23:45.050Z,8.34
2023-01-23T08:26:14.720Z,8.50
2023-01-23T08:28:43.316Z,8.50
2023-01-23T08:31:12.516Z,8.55
2023-01-23T08:33:39.955Z,8.57
2023-01-23T08:36:11.034Z,8.45
2023-01-23T08:38:38.626Z,8.51
2023-01-23T08:41:06.507Z,8.52
2023-01-23T08:43:33.543Z,8.56
2023-01-23T08:46:00.970Z,8.45
2023-01-23T08:48:28.718Z,8.49
2023-01-23T08:51:02.231Z,8.54
2023-01-23T08:53:30.374Z,8.52
2023-01-23T08:56:06.302Z,8.45
2023-01-23T08:58:33.662Z,8.44
2023-01-23T09:01:00.772Z,8.39
2023-01-23T09:03:28.847Z,8.47
2023-01-23T09:05:55.952Z,8.51
2023-01-23T09:08:22.988Z,8.65
2023-01-23T09:10:49.951Z,8.69
2023-01-23T09:13:19.713Z,8.71
2023-01-23T09:15:47.092Z,8.73
2023-01-23T09:18:14.123Z,8.79
2023-01-23T09:20:41.505Z,8.79
2023-01-23T09:23:08.577Z,8.70
2023-01-23T09:25:35.725Z,8.83
2023-01-23T09:28:02.738Z,8.85
2023-01-23T09:30:29.847Z,8.82
2023-01-23T09:32:56.773Z,8.74
2023-01-23T09:35:23.899Z,8.76
2023-01-23T09:38:01.996Z,8.76
2023-01-23T09:40:48.182Z,8.72
2023-01-23T09:43:27.203Z,8.82
2023-01-23T09:46:03.500Z,8.89
2023-01-23T09:48:36.833Z,8.88
2023-01-23T09:51:31.260Z,8.85
2023-01-23T09:54:14.439Z,8.88
2023-01-23T09:56:45.257Z,8.76
2023-01-23T09:59:35.513Z,8.68
2023-01-23T10:02:03.277Z,8.60
2023-01-23T10:04:31.804Z,8.55
2023-01-23T10:07:05.108Z,8.66
2023-01-23T10:09:40.572Z,8.65
2023-01-23T10:12:37.463Z,8.67
2023-01-23T10:15:16.234Z,8.64
2023-01-23T10:18:08.335Z,8.63
2023-01-23T10:20:54.297Z,8.61
2023-01-23T10:23:24.149Z,8.60
2023-01-23T10:25:51.730Z,8.52
2023-01-23T10:28:38.930Z,8.53
2023-01-23T10:31:20.134Z,8.49
2023-01-23T10:34:03.551Z,8.30
2023-01-23T10:36:54.104Z,8.45
2023-01-23T10:39:43.295Z,8.34
2023-01-23T10:42:14.181Z,8.37
2023-01-23T10:44:41.279Z,8.19
2023-01-23T10:47:32.807Z,8.28
2023-01-23T10:50:00.568Z,8.21
2023-01-23T10:52:53.731Z,8.22
2023-01-23T10:55:20.977Z,8.26
2023-01-23T10:57:50.051Z,8.26
2023-01-23T11:00:36.770Z,8.24
2023-01-23T11:03:22.017Z,8.21
2023-01-23T11:05:53.429Z,8.10
2023-01-23T11:08:25.113Z,7.71
2023-01-23T11:10:52.211Z,8.12
2023-01-23T11:13:30.550Z,8.09
2023-01-23T11:15:57.913Z,8.17
2023-01-23T11:18:42.645Z,8.21
2023-01-23T11:21:32.703Z,8.28
2023-01-23T11:24:37.851Z,8.24
2023-01-23T11:27:20.474Z,8.19
2023-01-23T11:29:50.400Z,8.18
2023-01-23T11:32:17.502Z,8.20
2023-01-23T11:34:51.341Z,8.10
2023-01-23T11:37:28.662Z,7.89
2023-01-23T11:40:01.810Z,8.08
2023-01-23T11:42:30.379Z,8.09
2023-01-23T11:45:01.377Z,7.93
2023-01-23T11:47:37.357Z,8.05
2023-01-23T11:50:27.296Z,8.07
2023-01-23T11:53:05.659Z,8.10
2023-01-23T11:56:03.612Z,8.13
2023-01-23T11:58:51.855Z,8.15
2023-01-23T12:01:49.358Z,8.04
2023-01-23T12:04:35.403Z,7.89
2023-01-23T12:07:18.422Z,7.97
2023-01-23T12:10:05.681Z,7.94
2023-01-23T12:12:40.878Z,7.96
2023-01-23T12:16:02.157Z,7.89
2023-01-23T12:18:59.075Z,7.93
2023-01-23T12:21:44.358Z,7.92
2023-01-23T12:24:18.896Z,7.94
2023-01-23T12:27:01.820Z,7.85
2023-01-23T12:30:06.676Z,7.94
2023-01-23T12:32:51.957Z,7.94
2023-01-23T12:35:19.106Z,7.96
2023-01-23T12:38:11.708Z,7.93
2023-01-23T12:40:46.535Z,7.91
2023-01-23T12:43:19.589Z,7.83
2023-01-23T12:46:06.156Z,7.97
2023-01-23T12:48:41.124Z,7.91
2023-01-23T12:51:18.901Z,7.96
2023-01-23T12:53:51.529Z,7.99
2023-01-23T12:56:24.344Z,7.89
2023-01-23T12:59:09.559Z,7.95
2023-01-23T13:01:55.553Z,7.92
2023-01-23T13:04:58.069Z,7.91
2023-01-23T13:07:51.211Z,7.88
2023-01-23T13:11:03.974Z,7.91
2023-01-23T13:13:31.765Z,7.91
2023-01-23T13:16:11.718Z,7.89
2023-01-23T13:18:58.496Z,7.94
2023-01-23T13:21:44.181Z,7.93
2023-01-23T13:25:04.517Z,7.89
2023-01-23T13:27:55.918Z,7.77
2023-01-23T13:30:23.448Z,7.90
2023-01-23T13:32:51.976Z,7.89
2023-01-23T13:35:53.095Z,7.57
2023-01-23T13:38:23.113Z,7.82
2023-01-23T13:41:05.249Z,7.79
2023-01-23T13:43:51.302Z,7.73
2023-01-23T14:21:42.660Z,7.75
2023-01-23T14:27:51.286Z,7.66
2023-01-23T14:30:24.843Z,7.66
2023-01-23T14:32:52.409Z,7.72
2023-01-23T14:35:31.643Z,7.70
2023-01-23T14:38:08.044Z,7.68
2023-01-23T14:40:49.216Z,7.60
2023-01-23T14:43:21.632Z,7.62
2023-01-23T14:45:55.744Z,7.69
2023-01-23T14:48:22.690Z,7.66
2023-01-23T14:50:49.763Z,7.67
2023-01-23T14:53:17.059Z,7.59
2023-01-23T14:55:47.520Z,7.56
2023-01-23T14:58:22.627Z,7.51
2023-01-23T15:00:51.086Z,7.47
2023-01-23T15:03:38.585Z,7.55
2023-01-23T15:06:20.692Z,7.41
2023-01-23T15:08:48.841Z,7.54
2023-01-23T15:11:17.972Z,7.56
2023-01-23T15:14:01.528Z,7.56
2023-01-23T15:16:34.172Z,7.45
2023-01-23T15:19:21.054Z,7.56
2023-01-23T15:21:48.664Z,7.52
2023-01-23T15:24:15.653Z,7.53
2023-01-23T15:27:00.136Z,7.48
2023-01-23T15:29:27.386Z,7.38
2023-01-23T15:31:55.801Z,7.52
2023-01-23T15:34:26.592Z,7.55
2023-01-23T15:37:11.763Z,7.53
2023-01-23T15:39:58.577Z,7.49
2023-01-23T15:42:35.843Z,7.43
2023-01-23T15:45:03.954Z,7.42
2023-01-23T15:47:32.381Z,7.45
2023-01-23T15:50:03.172Z,7.42
2023-01-23T15:52:44.944Z,7.44
2023-01-23T15:55:13.029Z,7.32
2023-01-23T15:57:40.229Z,7.45
2023-01-23T16:00:17.782Z,7.46
2023-01-23T16:02:55.696Z,7.49
2023-01-23T16:05:26.659Z,7.34
2023-01-23T16:07:55.325Z,7.39
2023-01-23T16:10:23.395Z,7.42
2023-01-23T16:12:52.942Z,7.25
2023-01-23T16:15:25.216Z,7.47
2023-01-23T16:17:52.886Z,7.32
2023-01-23T16:20:29.132Z,7.36
2023-01-23T16:23:01.873Z,7.53
2023-01-23T16:25:45.714Z,7.48
2023-01-23T16:28:21.836Z,7.41
2023-01-23T16:30:50.944Z,7.43
2023-01-23T16:33:18.548Z,7.45
2023-01-23T16:35:46.762Z,7.50
2023-01-23T16:38:29.014Z,7.30
2023-01-23T16:40:59.722Z,7.38
2023-01-23T16:43:27.641Z,7.48
2023-01-23T16:45:56.583Z,7.40
2023-01-23T16:48:27.526Z,7.38
2023-01-23T16:51:00.953Z,7.34
2023-01-23T16:53:31.805Z,7.40
2023-01-23T16:56:01.348Z,7.42
2023-01-23T16:58:32.972Z,7.33
2023-01-23T17:01:08.440Z,7.37
2023-01-23T17:03:38.393Z,7.31
2023-01-23T17:06:05.581Z,7.31
2023-01-23T17:08:33.700Z,7.33
2023-01-23T17:11:04.790Z,7.33
2023-01-23T17:13:35.060Z,7.34
2023-01-23T17:16:07.328Z,7.29
2023-01-23T17:18:38.160Z,7.25
2023-01-23T17:21:05.928Z,7.27
2023-01-23T17:23:32.908Z,7.29
2023-01-23T17:26:01.611Z,7.24
2023-01-23T17:28:29.434Z,7.24
2023-01-23T17:31:00.616Z,7.07
2023-01-23T17:33:31.804Z,7.20
2023-01-23T17:36:03.395Z,7.28
2023-01-23T17:38:31.473Z,7.03
2023-01-23T17:40:58.471Z,6.57
2023-01-23T17:43:25.668Z,7.31
2023-01-23T17:45:53.443Z,7.01
2023-01-23T17:48:27.482Z,7.20
2023-01-23T17:50:54.980Z,7.12
2023-01-23T17:53:23.987Z,6.90
2023-01-23T17:55:52.893Z,7.09
2023-01-23T17:58:20.993Z,6.83
2023-01-23T18:00:51.117Z,7.00
2023-01-23T18:03:21.839Z,7.04
2023-01-23T18:05:49.497Z,7.01
2023-01-23T18:08:18.726Z,7.07
2023-01-23T18:10:49.542Z,7.11
2023-01-23T18:13:44.691Z,7.11
2023-01-23T18:16:20.376Z,7.11
2023-01-23T18:18:53.469Z,7.11
2023-01-23T18:21:20.989Z,7.05
2023-01-23T18:23:48.374Z,7.09
2023-01-23T18:26:33.924Z,7.06
2023-01-23T18:29:20.332Z,6.90
2023-01-23T18:32:06.149Z,6.98
2023-01-23T18:35:17.852Z,6.86
2023-01-23T18:37:51.460Z,6.88
2023-01-23T18:40:24.995Z,6.86
2023-01-23T18:43:18.739Z,6.84
2023-01-23T18:45:45.974Z,6.33
2023-01-23T18:48:25.062Z,6.82
2023-01-23T18:51:13.885Z,6.85
2023-01-23T18:53:52.098Z,6.79
2023-01-23T18:56:27.546Z,6.88
2023-01-23T18:59:14.457Z,6.84
2023-01-23T19:01:44.721Z,6.93
2023-01-23T19:04:16.500Z,6.74
2023-01-23T19:06:44.976Z,6.89
2023-01-23T19:09:19.126Z,6.76
2023-01-23T19:12:20.611Z,6.85
2023-01-23T19:15:03.199Z,6.91
2023-01-23T19:17:39.667Z,6.92
2023-01-23T19:20:28.835Z,6.92
2023-01-23T19:23:21.014Z,6.94
2023-01-23T19:25:48.358Z,6.80
2023-01-23T19:28:16.134Z,6.95
2023-01-23T19:30:43.664Z,6.66
2023-01-23T19:33:16.925Z,6.93
2023-01-23T19:35:45.314Z,6.90
2023-01-23T19:38:12.880Z,6.95
2023-01-23T19:40:40.091Z,7.00
2023-01-23T19:43:14.374Z,6.98
2023-01-23T19:45:43.519Z,6.99
2023-01-23T19:48:11.284Z,6.75
2023-01-23T19:50:39.103Z,6.73
2023-01-23T19:53:06.854Z,6.82
2023-01-23T19:55:37.122Z,6.48
2023-01-23T19:58:04.531Z,6.78
2023-01-23T20:00:33.388Z,6.78
2023-01-23T20:03:00.367Z,6.44
2023-01-23T20:05:27.412Z,6.33
2023-01-23T20:07:54.419Z,6.72
2023-01-23T20:10:22.368Z,6.69
2023-01-23T20:12:55.403Z,6.67
2023-01-23T20:15:25.109Z,6.73
2023-01-23T20:17:53.100Z,6.52
2023-01-23T20:20:20.724Z,6.39
2023-01-23T20:22:48.239Z,6.56
2023-01-23T20:25:17.079Z,6.56
2023-01-23T20:27:44.776Z,6.64
2023-01-23T20:30:15.581Z,6.70
2023-01-23T20:32:43.202Z,6.40
2023-01-23T20:35:11.138Z,6.61
2023-01-23T20:37:38.128Z,6.66
2023-01-23T20:40:06.163Z,6.50
2023-01-23T20:42:33.530Z,6.73
2023-01-23T20:45:00.523Z,6.61
2023-01-23T20:47:27.637Z,6.58
2023-01-23T20:49:54.730Z,6.45
2023-01-23T20:52:40.408Z,6.52
2023-01-23T20:55:07.945Z,6.73
2023-01-23T20:57:53.582Z,6.60
2023-01-23T21:00:20.849Z,6.24
2023-01-23T21:02:48.221Z,6.41
2023-01-23T21:05:15.139Z,6.30
2023-01-23T21:07:42.156Z,6.14
2023-01-23T21:10:09.750Z,6.40
2023-01-23T21:12:37.578Z,6.43
2023-01-23T21:15:05.028Z,6.19
2023-01-23T21:17:32.242Z,6.59
2023-01-23T21:19:59.435Z,6.61
2023-01-23T21:22:26.373Z,6.42
2023-01-23T21:24:53.628Z,6.34
2023-01-23T21:27:23.493Z,6.56
2023-01-23T21:29:51.621Z,6.50
2023-01-23T21:32:18.906Z,6.11
2023-01-23T21:34:46.159Z,6.51
2023-01-23T21:37:13.125Z,6.45
2023-01-23T21:39:40.229Z,6.14
2023-01-23T21:42:07.141Z,6.48
2023-01-23T21:44:35.690Z,6.52
2023-01-23T21:47:03.240Z,6.52
2023-01-23T21:49:31.499Z,6.43
2023-01-23T21:51:58.514Z,6.47
2023-01-23T21:54:25.656Z,6.44
2023-01-23T21:56:52.860Z,6.38
2023-01-23T21:59:20.003Z,6.30
2023-01-23T22:01:47.290Z,6.50
2023-01-23T22:04:18.606Z,6.33
2023-01-23T22:06:46.861Z,6.46
2023-01-23T22:09:18.521Z,6.35
2023-01-23T22:11:46.517Z,6.24
2023-01-23T22:14:13.897Z,6.39
2023-01-23T22:17:04.871Z,6.35
2023-01-23T22:19:32.101Z,6.40
2023-01-23T22:21:59.037Z,6.11
2023-01-23T22:24:26.223Z,6.22
2023-01-23T22:26:53.593Z,6.04
2023-01-23T22:29:22.840Z,6.34
2023-01-23T22:31:51.222Z,5.90
2023-01-23T22:34:18.624Z,6.41
2023-01-23T22:36:45.822Z,5.46
2023-01-23T22:39:16.257Z,6.35
2023-01-23T22:41:45.534Z,6.31
2023-01-23T22:44:13.535Z,6.29
2023-01-23T22:46:43.758Z,6.29
2023-01-23T22:49:11.346Z,6.23
2023-01-23T22:51:38.514Z,6.00
2023-01-23T22:54:06.163Z,6.15
2023-01-23T22:56:33.434Z,6.21
2023-01-23T22:59:01.833Z,6.20
2023-01-23T23:01:29.104Z,6.22
2023-01-23T23:03:58.001Z,5.77
2023-01-23T23:06:25.705Z,5.49
2023-01-23T23:08:52.877Z,5.89
2023-01-23T23:11:22.272Z,6.22
2023-01-23T23:13:49.890Z,6.30
2023-01-23T23:16:22.472Z,6.34
2023-01-23T23:18:52.430Z,6.34
2023-01-23T23:21:22.430Z,6.28
2023-01-23T23:23:50.338Z,6.19
2023-01-23T23:26:17.677Z,6.37
2023-01-23T23:28:45.106Z,6.32
2023-01-23T23:31:12.166Z,6.39
2023-01-23T23:33:39.296Z,6.27
2023-01-23T23:36:07.426Z,6.19
2023-01-23T23:38:34.576Z,6.33
2023-01-23T23:41:04.606Z,6.34
2023-01-23T23:43:32.024Z,6.24
2023-01-23T23:46:02.735Z,6.09
2023-01-23T23:48:31.572Z,6.28
2023-01-23T23:51:03.972Z,6.13
2023-01-23T23:53:31.397Z,6.00
2023-01-23T23:55:58.456Z,6.13
2023-01-23T23:58:25.654Z,6.15
